sensor_id;sensor_type;location;lat;lon;timestamp;P1;durP1;ratioP1;P2;durP2;ratioP2
15327;SDS011;7764;51.430;6.840;2023-06-14T00:00:15;13.82;;;8.93;;
15327;SDS011;7764;51.430;6.840;2023-06-14T00:02:42;10.82;;;8.45;;
15327;SDS011;7764;51.430;6.840;2023-06-14T00:05:09;14.38;;;8.98;;
15327;SDS011;7764;51.430;6.840;2023-06-14T00:07:37;12.68;;;7.80;;
15327;SDS011;7764;51.430;6.840;2023-06-14T00:10:07;11.75;;;8.25;;
15327;SDS011;7764;51.430;6.840;2023-06-14T00:12:36;11.20;;;8.05;;
15327;SDS011;7764;51.430;6.840;2023-06-14T00:15:04;12.82;;;8.23;;
15327;SDS011;7764;51.430;6.840;2023-06-14T00:17:34;10.57;;;8.18;;
15327;SDS011;7764;51.430;6.840;2023-06-14T00:20:01;10.50;;;8.38;;
15327;SDS011;7764;51.430;6.840;2023-06-14T00:22:33;13.57;;;8.50;;
15327;SDS011;7764;51.430;6.840;2023-06-14T00:25:01;11.60;;;8.10;;
15327;SDS011;7764;51.430;6.840;2023-06-14T00:27:28;13.63;;;8.50;;
15327;SDS011;7764;51.430;6.840;2023-06-14T00:29:56;11.40;;;8.15;;
15327;SDS011;7764;51.430;6.840;2023-06-14T00:32:23;10.70;;;7.93;;
15327;SDS011;7764;51.430;6.840;2023-06-14T00:34:50;11.00;;;8.18;;
15327;SDS011;7764;51.430;6.840;2023-06-14T00:37:17;11.07;;;7.78;;
15327;SDS011;7764;51.430;6.840;2023-06-14T00:39:44;10.63;;;8.20;;
15327;SDS011;7764;51.430;6.840;2023-06-14T00:42:11;13.90;;;8.30;;
15327;SDS011;7764;51.430;6.840;2023-06-14T00:44:48;12.32;;;8.23;;
15327;SDS011;7764;51.430;6.840;2023-06-14T00:47:16;12.65;;;8.25;;
15327;SDS011;7764;51.430;6.840;2023-06-14T00:49:44;12.27;;;8.15;;
15327;SDS011;7764;51.430;6.840;2023-06-14T00:52:12;11.55;;;8.35;;
15327;SDS011;7764;51.430;6.840;2023-06-14T00:54:39;11.43;;;8.10;;
15327;SDS011;7764;51.430;6.840;2023-06-14T00:57:06;10.57;;;7.95;;
15327;SDS011;7764;51.430;6.840;2023-06-14T00:59:33;10.65;;;8.02;;
15327;SDS011;7764;51.430;6.840;2023-06-14T01:02:04;11.63;;;7.80;;
15327;SDS011;7764;51.430;6.840;2023-06-14T01:04:33;13.25;;;8.40;;
15327;SDS011;7764;51.430;6.840;2023-06-14T01:07:01;11.05;;;8.13;;
15327;SDS011;7764;51.430;6.840;2023-06-14T01:09:43;9.82;;;7.25;;
15327;SDS011;7764;51.430;6.840;2023-06-14T01:12:20;11.02;;;7.88;;
15327;SDS011;7764;51.430;6.840;2023-06-14T01:14:50;11.18;;;8.25;;
15327;SDS011;7764;51.430;6.840;2023-06-14T01:17:20;10.88;;;7.40;;
15327;SDS011;7764;51.430;6.840;2023-06-14T01:19:50;11.27;;;7.90;;
15327;SDS011;7764;51.430;6.840;2023-06-14T01:22:23;9.27;;;7.57;;
15327;SDS011;7764;51.430;6.840;2023-06-14T01:24:52;13.68;;;7.75;;
15327;SDS011;7764;51.430;6.840;2023-06-14T01:27:20;15.27;;;7.15;;
15327;SDS011;7764;51.430;6.840;2023-06-14T01:29:49;8.45;;;7.25;;
15327;SDS011;7764;51.430;6.840;2023-06-14T01:32:17;9.80;;;7.60;;
15327;SDS011;7764;51.430;6.840;2023-06-14T01:34:44;8.88;;;6.93;;
15327;SDS011;7764;51.430;6.840;2023-06-14T01:37:11;11.05;;;7.50;;
15327;SDS011;7764;51.430;6.840;2023-06-14T01:39:39;10.70;;;7.50;;
15327;SDS011;7764;51.430;6.840;2023-06-14T01:42:08;9.55;;;7.05;;
15327;SDS011;7764;51.430;6.840;2023-06-14T01:44:36;10.77;;;6.75;;
15327;SDS011;7764;51.430;6.840;2023-06-14T01:47:03;10.18;;;7.63;;
15327;SDS011;7764;51.430;6.840;2023-06-14T01:49:33;9.73;;;7.28;;
15327;SDS011;7764;51.430;6.840;2023-06-14T01:52:00;11.35;;;7.55;;
15327;SDS011;7764;51.430;6.840;2023-06-14T01:54:27;10.68;;;7.25;;
15327;SDS011;7764;51.430;6.840;2023-06-14T01:56:54;10.63;;;7.13;;
15327;SDS011;7764;51.430;6.840;2023-06-14T01:59:22;9.32;;;7.22;;
15327;SDS011;7764;51.430;6.840;2023-06-14T02:01:49;9.68;;;6.93;;
15327;SDS011;7764;51.430;6.840;2023-06-14T02:04:16;15.73;;;7.53;;
15327;SDS011;7764;51.430;6.840;2023-06-14T02:06:43;13.00;;;10.32;;
15327;SDS011;7764;51.430;6.840;2023-06-14T02:09:10;9.95;;;7.57;;
15327;SDS011;7764;51.430;6.840;2023-06-14T02:11:36;10.32;;;6.93;;
15327;SDS011;7764;51.430;6.840;2023-06-14T02:14:03;11.13;;;6.88;;
15327;SDS011;7764;51.430;6.840;2023-06-14T02:16:33;9.85;;;6.60;;
15327;SDS011;7764;51.430;6.840;2023-06-14T02:19:00;11.23;;;6.88;;
15327;SDS011;7764;51.430;6.840;2023-06-14T02:21:27;8.70;;;6.60;;
15327;SDS011;7764;51.430;6.840;2023-06-14T02:23:54;11.75;;;6.97;;
15327;SDS011;7764;51.430;6.840;2023-06-14T02:26:21;10.75;;;6.68;;
15327;SDS011;7764;51.430;6.840;2023-06-14T02:28:48;10.32;;;6.40;;
15327;SDS011;7764;51.430;6.840;2023-06-14T02:31:15;8.38;;;6.88;;
15327;SDS011;7764;51.430;6.840;2023-06-14T02:33:43;9.60;;;6.65;;
15327;SDS011;7764;51.430;6.840;2023-06-14T02:36:10;8.90;;;7.00;;
15327;SDS011;7764;51.430;6.840;2023-06-14T02:38:37;8.60;;;6.72;;
15327;SDS011;7764;51.430;6.840;2023-06-14T02:41:04;8.43;;;6.63;;
15327;SDS011;7764;51.430;6.840;2023-06-14T02:43:31;8.40;;;6.35;;
15327;SDS011;7764;51.430;6.840;2023-06-14T02:45:58;10.02;;;6.80;;
15327;SDS011;7764;51.430;6.840;2023-06-14T02:48:24;14.13;;;6.82;;
15327;SDS011;7764;51.430;6.840;2023-06-14T02:50:53;11.02;;;7.00;;
15327;SDS011;7764;51.430;6.840;2023-06-14T02:53:21;12.63;;;7.10;;
15327;SDS011;7764;51.430;6.840;2023-06-14T02:55:48;8.63;;;6.32;;
15327;SDS011;7764;51.430;6.840;2023-06-14T02:58:14;10.13;;;6.75;;
15327;SDS011;7764;51.430;6.840;2023-06-14T03:00:43;11.52;;;7.05;;
15327;SDS011;7764;51.430;6.840;2023-06-14T03:03:10;11.23;;;6.70;;
15327;SDS011;7764;51.430;6.840;2023-06-14T03:05:39;10.43;;;6.97;;
15327;SDS011;7764;51.430;6.840;2023-06-14T03:08:12;11.70;;;7.50;;
15327;SDS011;7764;51.430;6.840;2023-06-14T03:10:41;10.82;;;7.10;;
15327;SDS011;7764;51.430;6.840;2023-06-14T03:13:09;11.00;;;6.57;;
15327;SDS011;7764;51.430;6.840;2023-06-14T03:15:37;10.27;;;6.38;;
15327;SDS011;7764;51.430;6.840;2023-06-14T03:18:06;10.25;;;6.60;;
15327;SDS011;7764;51.430;6.840;2023-06-14T03:20:34;9.52;;;6.32;;
15327;SDS011;7764;51.430;6.840;2023-06-14T03:23:01;9.23;;;6.40;;
15327;SDS011;7764;51.430;6.840;2023-06-14T03:25:29;10.93;;;6.43;;
15327;SDS011;7764;51.430;6.840;2023-06-14T03:27:59;9.93;;;6.47;;
15327;SDS011;7764;51.430;6.840;2023-06-14T03:30:26;9.35;;;6.50;;
15327;SDS011;7764;51.430;6.840;2023-06-14T03:32:53;12.05;;;6.50;;
15327;SDS011;7764;51.430;6.840;2023-06-14T03:35:20;9.65;;;6.30;;
15327;SDS011;7764;51.430;6.840;2023-06-14T03:37:47;12.55;;;7.30;;
15327;SDS011;7764;51.430;6.840;2023-06-14T03:40:15;14.27;;;6.35;;
15327;SDS011;7764;51.430;6.840;2023-06-14T03:42:44;10.05;;;6.55;;
15327;SDS011;7764;51.430;6.840;2023-06-14T03:45:10;11.20;;;6.00;;
15327;SDS011;7764;51.430;6.840;2023-06-14T03:47:37;10.82;;;6.15;;
15327;SDS011;7764;51.430;6.840;2023-06-14T03:50:04;9.63;;;6.13;;
15327;SDS011;7764;51.430;6.840;2023-06-14T03:52:33;10.63;;;6.22;;
15327;SDS011;7764;51.430;6.840;2023-06-14T03:54:59;11.77;;;5.93;;
15327;SDS011;7764;51.430;6.840;2023-06-14T03:57:27;12.73;;;5.75;;
15327;SDS011;7764;51.430;6.840;2023-06-14T03:59:56;11.90;;;6.43;;
15327;SDS011;7764;51.430;6.840;2023-06-14T04:02:23;12.90;;;6.68;;
15327;SDS011;7764;51.430;6.840;2023-06-14T04:04:51;12.15;;;6.93;;
15327;SDS011;7764;51.430;6.840;2023-06-14T04:07:19;11.65;;;6.10;;
15327;SDS011;7764;51.430;6.840;2023-06-14T04:09:46;10.07;;;5.40;;
15327;SDS011;7764;51.430;6.840;2023-06-14T04:12:13;10.23;;;5.68;;
15327;SDS011;7764;51.430;6.840;2023-06-14T04:14:40;8.18;;;5.60;;
15327;SDS011;7764;51.430;6.840;2023-06-14T04:17:08;9.73;;;5.10;;
15327;SDS011;7764;51.430;6.840;2023-06-14T04:19:35;10.77;;;5.20;;
15327;SDS011;7764;51.430;6.840;2023-06-14T04:22:02;9.10;;;5.10;;
15327;SDS011;7764;51.430;6.840;2023-06-14T04:24:29;9.60;;;5.25;;
15327;SDS011;7764;51.430;6.840;2023-06-14T04:26:57;11.45;;;5.20;;
15327;SDS011;7764;51.430;6.840;2023-06-14T04:29:26;12.00;;;4.90;;
15327;SDS011;7764;51.430;6.840;2023-06-14T04:31:54;11.55;;;5.38;;
15327;SDS011;7764;51.430;6.840;2023-06-14T04:34:25;7.85;;;4.88;;
15327;SDS011;7764;51.430;6.840;2023-06-14T04:36:54;8.05;;;4.70;;
15327;SDS011;7764;51.430;6.840;2023-06-14T04:39:23;12.52;;;5.05;;
15327;SDS011;7764;51.430;6.840;2023-06-14T04:41:51;9.00;;;4.82;;
15327;SDS011;7764;51.430;6.840;2023-06-14T04:44:21;8.05;;;4.85;;
15327;SDS011;7764;51.430;6.840;2023-06-14T04:46:55;8.63;;;4.90;;
15327;SDS011;7764;51.430;6.840;2023-06-14T04:49:25;6.25;;;4.55;;
15327;SDS011;7764;51.430;6.840;2023-06-14T04:51:52;8.45;;;4.53;;
15327;SDS011;7764;51.430;6.840;2023-06-14T04:54:24;7.63;;;4.47;;
15327;SDS011;7764;51.430;6.840;2023-06-14T04:56:51;8.45;;;4.50;;
15327;SDS011;7764;51.430;6.840;2023-06-14T04:59:18;8.68;;;4.47;;
15327;SDS011;7764;51.430;6.840;2023-06-14T05:01:45;6.38;;;4.70;;
15327;SDS011;7764;51.430;6.840;2023-06-14T05:04:13;7.30;;;4.55;;
15327;SDS011;7764;51.430;6.840;2023-06-14T05:06:41;8.32;;;4.85;;
15327;SDS011;7764;51.430;6.840;2023-06-14T05:09:09;7.18;;;4.40;;
15327;SDS011;7764;51.430;6.840;2023-06-14T05:11:36;8.60;;;4.55;;
15327;SDS011;7764;51.430;6.840;2023-06-14T05:14:03;7.53;;;4.40;;
15327;SDS011;7764;51.430;6.840;2023-06-14T05:16:31;7.28;;;4.50;;
15327;SDS011;7764;51.430;6.840;2023-06-14T05:18:58;6.43;;;4.18;;
15327;SDS011;7764;51.430;6.840;2023-06-14T05:21:26;7.18;;;4.00;;
15327;SDS011;7764;51.430;6.840;2023-06-14T05:23:54;9.65;;;4.53;;
15327;SDS011;7764;51.430;6.840;2023-06-14T05:26:21;6.47;;;4.32;;
15327;SDS011;7764;51.430;6.840;2023-06-14T05:28:50;8.77;;;4.32;;
15327;SDS011;7764;51.430;6.840;2023-06-14T05:31:17;8.75;;;4.88;;
15327;SDS011;7764;51.430;6.840;2023-06-14T05:33:45;9.20;;;4.70;;
15327;SDS011;7764;51.430;6.840;2023-06-14T05:36:11;9.45;;;5.22;;
15327;SDS011;7764;51.430;6.840;2023-06-14T05:38:38;12.45;;;5.00;;
15327;SDS011;7764;51.430;6.840;2023-06-14T05:41:06;11.68;;;4.70;;
15327;SDS011;7764;51.430;6.840;2023-06-14T05:43:33;11.93;;;4.97;;
15327;SDS011;7764;51.430;6.840;2023-06-14T05:46:00;20.85;;;11.00;;
15327;SDS011;7764;51.430;6.840;2023-06-14T05:48:28;7.75;;;4.50;;
15327;SDS011;7764;51.430;6.840;2023-06-14T05:50:55;10.32;;;4.55;;
15327;SDS011;7764;51.430;6.840;2023-06-14T05:53:22;7.40;;;4.65;;
15327;SDS011;7764;51.430;6.840;2023-06-14T05:55:49;11.82;;;5.00;;
15327;SDS011;7764;51.430;6.840;2023-06-14T05:58:18;8.95;;;4.57;;
15327;SDS011;7764;51.430;6.840;2023-06-14T06:00:45;8.82;;;4.15;;
15327;SDS011;7764;51.430;6.840;2023-06-14T06:03:12;9.63;;;5.28;;
15327;SDS011;7764;51.430;6.840;2023-06-14T06:05:39;8.73;;;4.22;;
15327;SDS011;7764;51.430;6.840;2023-06-14T06:08:05;9.63;;;4.18;;
15327;SDS011;7764;51.430;6.840;2023-06-14T06:10:32;7.40;;;4.10;;
15327;SDS011;7764;51.430;6.840;2023-06-14T06:12:59;12.00;;;4.60;;
15327;SDS011;7764;51.430;6.840;2023-06-14T06:15:27;11.82;;;5.18;;
15327;SDS011;7764;51.430;6.840;2023-06-14T06:17:54;9.63;;;4.50;;
15327;SDS011;7764;51.430;6.840;2023-06-14T06:20:21;7.95;;;4.32;;
15327;SDS011;7764;51.430;6.840;2023-06-14T06:22:52;10.27;;;4.40;;
15327;SDS011;7764;51.430;6.840;2023-06-14T06:25:20;13.50;;;4.80;;
15327;SDS011;7764;51.430;6.840;2023-06-14T06:27:47;10.18;;;4.40;;
15327;SDS011;7764;51.430;6.840;2023-06-14T06:30:14;9.60;;;4.30;;
15327;SDS011;7764;51.430;6.840;2023-06-14T06:32:43;7.28;;;4.30;;
15327;SDS011;7764;51.430;6.840;2023-06-14T06:35:09;11.63;;;4.20;;
15327;SDS011;7764;51.430;6.840;2023-06-14T06:37:37;7.00;;;4.07;;
15327;SDS011;7764;51.430;6.840;2023-06-14T06:40:05;9.27;;;3.85;;
15327;SDS011;7764;51.430;6.840;2023-06-14T06:42:33;9.05;;;3.63;;
15327;SDS011;7764;51.430;6.840;2023-06-14T06:45:00;10.80;;;4.38;;
15327;SDS011;7764;51.430;6.840;2023-06-14T06:47:28;7.22;;;3.33;;
15327;SDS011;7764;51.430;6.840;2023-06-14T06:49:56;7.13;;;3.50;;
15327;SDS011;7764;51.430;6.840;2023-06-14T06:52:23;6.00;;;3.47;;
15327;SDS011;7764;51.430;6.840;2023-06-14T06:54:50;7.43;;;3.00;;
15327;SDS011;7764;51.430;6.840;2023-06-14T06:57:20;5.32;;;2.83;;
15327;SDS011;7764;51.430;6.840;2023-06-14T06:59:47;7.38;;;2.92;;
15327;SDS011;7764;51.430;6.840;2023-06-14T07:02:14;5.05;;;2.60;;
15327;SDS011;7764;51.430;6.840;2023-06-14T07:04:41;3.55;;;2.30;;
15327;SDS011;7764;51.430;6.840;2023-06-14T07:07:09;7.93;;;2.70;;
15327;SDS011;7764;51.430;6.840;2023-06-14T07:09:36;4.75;;;2.53;;
15327;SDS011;7764;51.430;6.840;2023-06-14T07:12:03;3.88;;;2.40;;
15327;SDS011;7764;51.430;6.840;2023-06-14T07:14:30;6.57;;;2.70;;
15327;SDS011;7764;51.430;6.840;2023-06-14T07:16:57;4.97;;;2.70;;
15327;SDS011;7764;51.430;6.840;2023-06-14T07:19:24;5.78;;;3.05;;
15327;SDS011;7764;51.430;6.840;2023-06-14T07:21:51;4.55;;;2.70;;
15327;SDS011;7764;51.430;6.840;2023-06-14T07:24:19;3.63;;;2.50;;
15327;SDS011;7764;51.430;6.840;2023-06-14T07:26:47;4.45;;;2.55;;
15327;SDS011;7764;51.430;6.840;2023-06-14T07:29:14;5.70;;;2.58;;
15327;SDS011;7764;51.430;6.840;2023-06-14T07:31:41;7.20;;;2.80;;
15327;SDS011;7764;51.430;6.840;2023-06-14T07:34:08;3.28;;;2.50;;
15327;SDS011;7764;51.430;6.840;2023-06-14T07:36:35;4.88;;;2.65;;
15327;SDS011;7764;51.430;6.840;2023-06-14T07:39:03;6.20;;;2.72;;
15327;SDS011;7764;51.430;6.840;2023-06-14T07:41:32;5.28;;;2.47;;
15327;SDS011;7764;51.430;6.840;2023-06-14T07:43:59;6.28;;;2.60;;
15327;SDS011;7764;51.430;6.840;2023-06-14T07:46:26;3.97;;;2.33;;
15327;SDS011;7764;51.430;6.840;2023-06-14T07:48:53;4.80;;;2.40;;
15327;SDS011;7764;51.430;6.840;2023-06-14T07:51:20;3.90;;;2.47;;
15327;SDS011;7764;51.430;6.840;2023-06-14T07:53:48;5.68;;;3.00;;
15327;SDS011;7764;51.430;6.840;2023-06-14T07:56:15;6.13;;;2.80;;
15327;SDS011;7764;51.430;6.840;2023-06-14T07:58:43;5.10;;;2.75;;
15327;SDS011;7764;51.430;6.840;2023-06-14T08:01:10;7.80;;;2.70;;
15327;SDS011;7764;51.430;6.840;2023-06-14T08:03:37;8.35;;;2.60;;
15327;SDS011;7764;51.430;6.840;2023-06-14T08:06:04;6.20;;;2.70;;
15327;SDS011;7764;51.430;6.840;2023-06-14T08:08:31;8.13;;;3.10;;
15327;SDS011;7764;51.430;6.840;2023-06-14T08:10:58;4.68;;;2.85;;
15327;SDS011;7764;51.430;6.840;2023-06-14T08:13:25;5.97;;;2.70;;
15327;SDS011;7764;51.430;6.840;2023-06-14T08:15:54;9.55;;;3.05;;
15327;SDS011;7764;51.430;6.840;2023-06-14T08:18:23;5.05;;;2.78;;
15327;SDS011;7764;51.430;6.840;2023-06-14T08:20:50;5.75;;;2.88;;
15327;SDS011;7764;51.430;6.840;2023-06-14T08:23:17;6.60;;;2.75;;
15327;SDS011;7764;51.430;6.840;2023-06-14T08:25:46;6.35;;;2.80;;
15327;SDS011;7764;51.430;6.840;2023-06-14T08:28:12;7.78;;;2.80;;
15327;SDS011;7764;51.430;6.840;2023-06-14T08:30:39;7.43;;;2.83;;
15327;SDS011;7764;51.430;6.840;2023-06-14T08:33:09;7.00;;;2.90;;
15327;SDS011;7764;51.430;6.840;2023-06-14T08:35:36;4.28;;;2.70;;
15327;SDS011;7764;51.430;6.840;2023-06-14T08:38:04;4.00;;;2.60;;
15327;SDS011;7764;51.430;6.840;2023-06-14T08:40:31;9.95;;;2.60;;
15327;SDS011;7764;51.430;6.840;2023-06-14T08:43:03;5.63;;;2.60;;
15327;SDS011;7764;51.430;6.840;2023-06-14T08:45:30;5.22;;;2.70;;
15327;SDS011;7764;51.430;6.840;2023-06-14T08:47:57;6.93;;;2.97;;
15327;SDS011;7764;51.430;6.840;2023-06-14T08:50:27;5.10;;;2.95;;
15327;SDS011;7764;51.430;6.840;2023-06-14T08:52:58;4.32;;;2.85;;
15327;SDS011;7764;51.430;6.840;2023-06-14T08:55:27;7.53;;;3.20;;
15327;SDS011;7764;51.430;6.840;2023-06-14T08:57:55;7.82;;;3.17;;
15327;SDS011;7764;51.430;6.840;2023-06-14T09:00:24;8.95;;;3.10;;
15327;SDS011;7764;51.430;6.840;2023-06-14T09:02:51;8.05;;;3.00;;
15327;SDS011;7764;51.430;6.840;2023-06-14T09:05:22;6.53;;;3.00;;
15327;SDS011;7764;51.430;6.840;2023-06-14T09:07:51;5.28;;;3.78;;
15327;SDS011;7764;51.430;6.840;2023-06-14T09:10:20;4.65;;;3.30;;
15327;SDS011;7764;51.430;6.840;2023-06-14T09:12:47;6.72;;;3.45;;
15327;SDS011;7764;51.430;6.840;2023-06-14T09:15:14;5.85;;;3.47;;
15327;SDS011;7764;51.430;6.840;2023-06-14T09:17:42;7.45;;;3.47;;
15327;SDS011;7764;51.430;6.840;2023-06-14T09:20:09;5.60;;;3.25;;
15327;SDS011;7764;51.430;6.840;2023-06-14T09:22:38;5.53;;;3.00;;
15327;SDS011;7764;51.430;6.840;2023-06-14T09:25:08;8.80;;;2.70;;
15327;SDS011;7764;51.430;6.840;2023-06-14T09:27:35;5.50;;;2.80;;
15327;SDS011;7764;51.430;6.840;2023-06-14T09:30:05;8.30;;;3.25;;
15327;SDS011;7764;51.430;6.840;2023-06-14T09:32:35;7.82;;;3.00;;
15327;SDS011;7764;51.430;6.840;2023-06-14T09:35:03;5.70;;;2.70;;
15327;SDS011;7764;51.430;6.840;2023-06-14T09:37:32;7.13;;;3.05;;
15327;SDS011;7764;51.430;6.840;2023-06-14T09:39:59;4.60;;;2.85;;
15327;SDS011;7764;51.430;6.840;2023-06-14T09:42:27;4.97;;;2.50;;
15327;SDS011;7764;51.430;6.840;2023-06-14T09:44:55;4.25;;;2.63;;
15327;SDS011;7764;51.430;6.840;2023-06-14T09:47:23;4.15;;;2.30;;
15327;SDS011;7764;51.430;6.840;2023-06-14T09:49:50;5.20;;;2.42;;
15327;SDS011;7764;51.430;6.840;2023-06-14T09:52:19;8.13;;;2.47;;
15327;SDS011;7764;51.430;6.840;2023-06-14T09:54:47;6.00;;;2.70;;
15327;SDS011;7764;51.430;6.840;2023-06-14T09:57:15;6.10;;;2.55;;
15327;SDS011;7764;51.430;6.840;2023-06-14T09:59:45;6.18;;;2.65;;
15327;SDS011;7764;51.430;6.840;2023-06-14T10:02:16;7.35;;;2.20;;
15327;SDS011;7764;51.430;6.840;2023-06-14T10:04:52;7.35;;;2.30;;
15327;SDS011;7764;51.430;6.840;2023-06-14T10:07:26;7.07;;;2.67;;
15327;SDS011;7764;51.430;6.840;2023-06-14T10:09:56;5.72;;;2.30;;
15327;SDS011;7764;51.430;6.840;2023-06-14T10:12:24;6.80;;;2.20;;
15327;SDS011;7764;51.430;6.840;2023-06-14T10:14:52;6.93;;;2.30;;
15327;SDS011;7764;51.430;6.840;2023-06-14T10:17:23;4.00;;;2.00;;
15327;SDS011;7764;51.430;6.840;2023-06-14T10:20:03;2.55;;;2.20;;
15327;SDS011;7764;51.430;6.840;2023-06-14T10:22:41;6.10;;;2.30;;
15327;SDS011;7764;51.430;6.840;2023-06-14T10:25:19;3.67;;;2.10;;
15327;SDS011;7764;51.430;6.840;2023-06-14T10:27:52;3.97;;;2.20;;
15327;SDS011;7764;51.430;6.840;2023-06-14T10:30:26;7.05;;;2.40;;
15327;SDS011;7764;51.430;6.840;2023-06-14T10:33:05;3.17;;;1.90;;
15327;SDS011;7764;51.430;6.840;2023-06-14T10:35:33;7.38;;;2.55;;
15327;SDS011;7764;51.430;6.840;2023-06-14T10:38:06;4.32;;;1.90;;
15327;SDS011;7764;51.430;6.840;2023-06-14T10:40:34;6.13;;;1.77;;
15327;SDS011;7764;51.430;6.840;2023-06-14T10:43:10;3.05;;;1.85;;
15327;SDS011;7764;51.430;6.840;2023-06-14T10:48:46;4.68;;;1.80;;
15327;SDS011;7764;51.430;6.840;2023-06-14T10:51:17;3.45;;;2.17;;
15327;SDS011;7764;51.430;6.840;2023-06-14T10:53:46;2.13;;;1.50;;
15327;SDS011;7764;51.430;6.840;2023-06-14T10:56:23;6.18;;;1.70;;
15327;SDS011;7764;51.430;6.840;2023-06-14T10:58:53;6.43;;;2.70;;
15327;SDS011;7764;51.430;6.840;2023-06-14T11:01:26;5.45;;;2.22;;
15327;SDS011;7764;51.430;6.840;2023-06-14T11:04:10;6.38;;;2.00;;
15327;SDS011;7764;51.430;6.840;2023-06-14T11:06:47;7.78;;;2.70;;
15327;SDS011;7764;51.430;6.840;2023-06-14T11:12:19;3.67;;;1.90;;
15327;SDS011;7764;51.430;6.840;2023-06-14T11:14:47;5.28;;;2.17;;
15327;SDS011;7764;51.430;6.840;2023-06-14T11:17:16;3.88;;;2.03;;
15327;SDS011;7764;51.430;6.840;2023-06-14T11:19:43;3.53;;;2.17;;
15327;SDS011;7764;51.430;6.840;2023-06-14T11:22:10;4.22;;;2.17;;
15327;SDS011;7764;51.430;6.840;2023-06-14T11:24:39;5.18;;;2.20;;
15327;SDS011;7764;51.430;6.840;2023-06-14T11:27:06;3.28;;;2.17;;
15327;SDS011;7764;51.430;6.840;2023-06-14T11:29:33;4.65;;;2.25;;
15327;SDS011;7764;51.430;6.840;2023-06-14T11:32:00;6.03;;;2.38;;
15327;SDS011;7764;51.430;6.840;2023-06-14T11:34:28;3.75;;;2.38;;
15327;SDS011;7764;51.430;6.840;2023-06-14T11:36:55;3.72;;;2.10;;
15327;SDS011;7764;51.430;6.840;2023-06-14T11:39:24;3.53;;;2.40;;
15327;SDS011;7764;51.430;6.840;2023-06-14T11:41:52;2.97;;;2.00;;
15327;SDS011;7764;51.430;6.840;2023-06-14T11:44:20;6.53;;;2.42;;
15327;SDS011;7764;51.430;6.840;2023-06-14T11:46:47;4.65;;;2.30;;
15327;SDS011;7764;51.430;6.840;2023-06-14T11:49:15;6.13;;;2.33;;
15327;SDS011;7764;51.430;6.840;2023-06-14T11:51:43;4.45;;;2.80;;
15327;SDS011;7764;51.430;6.840;2023-06-14T11:54:10;5.43;;;2.35;;
15327;SDS011;7764;51.430;6.840;2023-06-14T11:56:38;8.55;;;2.00;;
15327;SDS011;7764;51.430;6.840;2023-06-14T11:59:05;5.40;;;2.20;;
15327;SDS011;7764;51.430;6.840;2023-06-14T12:01:35;4.03;;;2.40;;
15327;SDS011;7764;51.430;6.840;2023-06-14T12:04:03;6.30;;;2.40;;
15327;SDS011;7764;51.430;6.840;2023-06-14T12:06:31;6.97;;;2.10;;
15327;SDS011;7764;51.430;6.840;2023-06-14T12:09:04;8.20;;;2.13;;
15327;SDS011;7764;51.430;6.840;2023-06-14T12:11:33;4.68;;;1.95;;
15327;SDS011;7764;51.430;6.840;2023-06-14T12:14:02;4.22;;;1.90;;
15327;SDS011;7764;51.430;6.840;2023-06-14T12:16:30;4.80;;;2.25;;
15327;SDS011;7764;51.430;6.840;2023-06-14T12:19:00;3.28;;;2.20;;
15327;SDS011;7764;51.430;6.840;2023-06-14T12:21:28;6.20;;;4.93;;
15327;SDS011;7764;51.430;6.840;2023-06-14T12:23:55;2.40;;;2.00;;
15327;SDS011;7764;51.430;6.840;2023-06-14T12:26:23;5.28;;;2.45;;
15327;SDS011;7764;51.430;6.840;2023-06-14T12:28:52;5.93;;;2.40;;
15327;SDS011;7764;51.430;6.840;2023-06-14T12:31:19;2.80;;;2.30;;
15327;SDS011;7764;51.430;6.840;2023-06-14T12:33:46;3.85;;;2.50;;
15327;SDS011;7764;51.430;6.840;2023-06-14T12:36:13;3.95;;;2.60;;
15327;SDS011;7764;51.430;6.840;2023-06-14T12:38:41;6.20;;;2.45;;
15327;SDS011;7764;51.430;6.840;2023-06-14T12:41:08;4.15;;;2.47;;
15327;SDS011;7764;51.430;6.840;2023-06-14T12:43:37;6.00;;;2.60;;
15327;SDS011;7764;51.430;6.840;2023-06-14T12:46:03;4.20;;;2.55;;
15327;SDS011;7764;51.430;6.840;2023-06-14T12:48:31;5.63;;;2.70;;
15327;SDS011;7764;51.430;6.840;2023-06-14T12:50:59;5.25;;;3.10;;
15327;SDS011;7764;51.430;6.840;2023-06-14T12:53:26;5.28;;;2.70;;
15327;SDS011;7764;51.430;6.840;2023-06-14T12:55:53;6.63;;;2.90;;
15327;SDS011;7764;51.430;6.840;2023-06-14T12:58:19;4.28;;;2.85;;
15327;SDS011;7764;51.430;6.840;2023-06-14T13:00:47;5.65;;;3.03;;
15327;SDS011;7764;51.430;6.840;2023-06-14T13:03:14;6.07;;;3.20;;
15327;SDS011;7764;51.430;6.840;2023-06-14T13:05:41;3.70;;;3.00;;
15327;SDS011;7764;51.430;6.840;2023-06-14T13:08:08;7.50;;;2.92;;
15327;SDS011;7764;51.430;6.840;2023-06-14T13:10:35;4.15;;;3.20;;
15327;SDS011;7764;51.430;6.840;2023-06-14T13:13:02;5.25;;;3.20;;
15327;SDS011;7764;51.430;6.840;2023-06-14T13:15:29;5.97;;;2.90;;
15327;SDS011;7764;51.430;6.840;2023-06-14T13:17:57;5.80;;;2.75;;
15327;SDS011;7764;51.430;6.840;2023-06-14T13:20:24;5.20;;;2.97;;
15327;SDS011;7764;51.430;6.840;2023-06-14T13:22:51;4.65;;;3.00;;
15327;SDS011;7764;51.430;6.840;2023-06-14T13:25:18;7.40;;;3.15;;
15327;SDS011;7764;51.430;6.840;2023-06-14T13:27:45;8.30;;;2.90;;
15327;SDS011;7764;51.430;6.840;2023-06-14T13:30:12;6.65;;;2.70;;
15327;SDS011;7764;51.430;6.840;2023-06-14T13:32:39;5.13;;;2.83;;
15327;SDS011;7764;51.430;6.840;2023-06-14T13:35:07;4.90;;;2.72;;
15327;SDS011;7764;51.430;6.840;2023-06-14T13:37:34;7.38;;;2.90;;
15327;SDS011;7764;51.430;6.840;2023-06-14T13:40:01;4.50;;;2.90;;
15327;SDS011;7764;51.430;6.840;2023-06-14T13:42:28;5.65;;;3.30;;
15327;SDS011;7764;51.430;6.840;2023-06-14T13:44:56;6.57;;;2.85;;
15327;SDS011;7764;51.430;6.840;2023-06-14T13:47:24;6.07;;;2.95;;
15327;SDS011;7764;51.430;6.840;2023-06-14T13:49:50;4.07;;;2.85;;
15327;SDS011;7764;51.430;6.840;2023-06-14T13:52:19;4.88;;;3.10;;
15327;SDS011;7764;51.430;6.840;2023-06-14T13:54:45;5.63;;;2.90;;
15327;SDS011;7764;51.430;6.840;2023-06-14T13:57:12;5.35;;;2.90;;
15327;SDS011;7764;51.430;6.840;2023-06-14T13:59:39;7.53;;;3.85;;
15327;SDS011;7764;51.430;6.840;2023-06-14T14:02:06;8.80;;;3.00;;
15327;SDS011;7764;51.430;6.840;2023-06-14T14:04:34;6.10;;;3.28;;
15327;SDS011;7764;51.430;6.840;2023-06-14T14:07:01;5.18;;;3.00;;
15327;SDS011;7764;51.430;6.840;2023-06-14T14:09:29;4.63;;;2.75;;
15327;SDS011;7764;51.430;6.840;2023-06-14T14:11:56;5.10;;;2.80;;
15327;SDS011;7764;51.430;6.840;2023-06-14T14:14:23;4.82;;;2.92;;
15327;SDS011;7764;51.430;6.840;2023-06-14T14:16:51;6.75;;;3.08;;
15327;SDS011;7764;51.430;6.840;2023-06-14T14:19:18;6.85;;;3.08;;
15327;SDS011;7764;51.430;6.840;2023-06-14T14:21:45;3.63;;;2.83;;
15327;SDS011;7764;51.430;6.840;2023-06-14T14:24:12;4.38;;;3.03;;
15327;SDS011;7764;51.430;6.840;2023-06-14T14:26:40;6.93;;;3.20;;
15327;SDS011;7764;51.430;6.840;2023-06-14T14:29:07;4.72;;;3.20;;
15327;SDS011;7764;51.430;6.840;2023-06-14T14:31:36;7.40;;;3.15;;
15327;SDS011;7764;51.430;6.840;2023-06-14T14:34:03;5.75;;;3.13;;
15327;SDS011;7764;51.430;6.840;2023-06-14T14:36:30;4.25;;;2.83;;
15327;SDS011;7764;51.430;6.840;2023-06-14T14:38:58;6.88;;;4.00;;
15327;SDS011;7764;51.430;6.840;2023-06-14T14:41:25;4.38;;;3.10;;
15327;SDS011;7764;51.430;6.840;2023-06-14T14:43:53;5.63;;;3.10;;
15327;SDS011;7764;51.430;6.840;2023-06-14T14:46:20;8.65;;;3.40;;
15327;SDS011;7764;51.430;6.840;2023-06-14T14:48:47;8.85;;;3.72;;
15327;SDS011;7764;51.430;6.840;2023-06-14T14:51:13;6.38;;;3.58;;
15327;SDS011;7764;51.430;6.840;2023-06-14T14:53:40;5.03;;;3.13;;
15327;SDS011;7764;51.430;6.840;2023-06-14T14:56:07;6.22;;;3.38;;
15327;SDS011;7764;51.430;6.840;2023-06-14T14:58:34;5.18;;;3.10;;
15327;SDS011;7764;51.430;6.840;2023-06-14T15:01:02;6.40;;;3.30;;
15327;SDS011;7764;51.430;6.840;2023-06-14T15:03:30;5.93;;;3.72;;
15327;SDS011;7764;51.430;6.840;2023-06-14T15:05:57;6.32;;;3.22;;
15327;SDS011;7764;51.430;6.840;2023-06-14T15:08:24;5.15;;;3.30;;